Time;durP1;ratioP1;P1;durP2;ratioP2;P2;SDS_P1;SDS_P2;PMS_P1;PMS_P2;Temp;Humidity;BMP_temperature;BMP_pressure;BME280_temperature;BME280_humidity;BME280_pressure;Samples;Min_cycle;Max_cycle;Signal;HPM_P1;HPM_P2
2023/09/13 00:03:48;;;;;;;304.15;291.42;;;;;;;19.11;100.00;101323.53;10409342;28;20100;-67
2023/09/13 00:08:48;;;;;;;342.80;328.10;;;;;;;19.18;100.00;101329.75;10424555;28;20119;-67
2023/09/13 00:13:49;;;;;;;362.92;347.45;;;;;;;19.20;100.00;101322.06;10409394;28;20034;-68
2023/09/13 00:18:49;;;;;;;369.42;353.50;;;;;;;19.21;100.00;101322.94;10407522;28;20087;-67
2023/09/13 00:23:49;;;;;;;397.27;379.70;;;;;;;19.17;100.00;101313.50;10409290;28;20029;-67
2023/09/13 00:28:50;;;;;;;385.95;369.38;;;;;;;19.13;100.00;101313.16;10409344;28;20460;-68
2023/09/13 00:33:50;;;;;;;384.25;367.52;;;;;;;19.12;100.00;101316.16;10408884;28;20061;-68
2023/09/13 00:38:51;;;;;;;391.48;374.23;;;;;;;18.99;100.00;101315.38;10424330;28;20040;-67
2023/09/13 00:43:51;;;;;;;387.25;370.65;;;;;;;18.84;100.00;101322.44;10408526;28;20065;-67
2023/09/13 00:48:52;;;;;;;373.83;357.45;;;;;;;18.71;100.00;101318.84;10406893;28;20524;-67
2023/09/13 00:53:52;;;;;;;365.85;350.27;;;;;;;18.68;100.00;101322.09;10390640;28;20067;-67
2023/09/13 00:58:52;;;;;;;373.90;357.55;;;;;;;18.73;100.00;101314.00;10407161;28;20120;-68
2023/09/13 01:03:53;;;;;;;372.30;356.48;;;;;;;18.75;100.00;101317.31;10424099;28;20389;-66
2023/09/13 01:08:53;;;;;;;362.33;346.42;;;;;;;18.65;100.00;101306.09;10409116;28;20037;-67
2023/09/13 01:13:54;;;;;;;369.50;353.20;;;;;;;18.58;100.00;101292.53;10414021;28;20026;-67
2023/09/13 01:19:15;;;;;;;354.35;338.67;;;;;;;18.59;100.00;101285.13;10415363;28;20074;-67
2023/09/13 01:24:39;;;;;;;376.55;359.48;;;;;;;18.64;100.00;101289.91;10415156;28;20191;-68
2023/09/13 01:29:39;;;;;;;401.65;383.17;;;;;;;18.56;100.00;101289.19;10416135;28;20037;-68
2023/09/13 01:34:40;;;;;;;439.17;418.70;;;;;;;18.47;100.00;101300.75;10414636;28;20497;-66
2023/09/13 01:39:40;;;;;;;450.75;429.20;;;;;;;18.36;100.00;101297.78;10429852;28;20049;-68
2023/09/13 01:44:41;;;;;;;434.20;414.13;;;;;;;18.35;100.00;101303.53;10429900;28;20033;-67
2023/09/13 01:49:41;;;;;;;451.98;430.30;;;;;;;18.33;100.00;101308.41;10413994;28;20110;-67
2023/09/13 01:54:42;;;;;;;471.55;448.52;;;;;;;18.27;100.00;101307.44;10436960;28;20468;-67
2023/09/13 01:59:42;;;;;;;477.77;454.45;;;;;;;18.20;100.00;101311.41;10437116;28;20433;-67
2023/09/13 02:04:43;;;;;;;495.77;471.50;;;;;;;18.16;100.00;101311.03;10437236;28;20053;-67
2023/09/13 02:09:43;;;;;;;492.73;468.55;;;;;;;18.10;100.00;101312.81;10454885;28;20060;-67
2023/09/13 02:14:43;;;;;;;489.92;464.98;;;;;;;18.07;100.00;101315.19;10436910;28;20128;-67
2023/09/13 02:19:48;;;;;;;512.60;487.15;;;;;;;18.08;100.00;101314.94;10453442;28;20607;-67
2023/09/13 02:24:48;;;;;;;511.77;486.15;;;;;;;18.25;100.00;101320.59;10454370;28;20472;-67
2023/09/13 02:29:48;;;;;;;525.50;499.45;;;;;;;18.29;100.00;101315.44;10419177;28;20033;-68
2023/09/13 02:34:49;;;;;;;522.42;496.40;;;;;;;18.17;100.00;101312.69;10454232;28;20065;-68
2023/09/13 02:39:49;;;;;;;539.00;511.58;;;;;;;18.08;100.00;101319.59;10435830;28;20427;-68
2023/09/13 02:44:50;;;;;;;543.25;514.97;;;;;;;18.01;100.00;101321.63;10454663;28;20040;-66
2023/09/13 02:49:51;;;;;;;538.30;511.10;;;;;;;17.98;100.00;101325.66;10452081;28;20033;-67
2023/09/13 02:54:51;;;;;;;533.80;506.05;;;;;;;17.96;100.00;101329.72;10418866;28;20083;-67
2023/09/13 02:59:51;;;;;;;534.65;506.33;;;;;;;17.92;100.00;101312.09;10435095;28;20485;-67
2023/09/13 03:04:52;;;;;;;526.83;499.52;;;;;;;17.86;100.00;101331.13;10453029;28;20048;-67
2023/09/13 03:09:54;;;;;;;539.25;510.42;;;;;;;17.80;100.00;101323.00;10418145;28;20143;-68
2023/09/13 03:14:56;;;;;;;524.13;496.33;;;;;;;17.82;100.00;101323.63;10433689;28;20110;-66
2023/09/13 03:19:56;;;;;;;527.15;498.90;;;;;;;17.80;100.00;101318.38;10451075;28;20130;-66
2023/09/13 03:24:56;;;;;;;547.08;517.22;;;;;;;17.80;100.00;101323.00;10434035;28;20041;-67
2023/09/13 03:29:58;;;;;;;541.50;512.40;;;;;;;17.76;100.00;101327.28;10451206;28;20040;-67
2023/09/13 03:34:58;;;;;;;569.55;537.33;;;;;;;17.81;100.00;101332.91;10450830;28;20059;-68
2023/09/13 03:39:59;;;;;;;568.65;537.80;;;;;;;17.84;100.00;101341.50;10450934;28;20044;-67
2023/09/13 03:44:59;;;;;;;548.72;519.35;;;;;;;17.83;100.00;101336.25;10433213;28;20051;-67
2023/09/13 03:50:00;;;;;;;588.90;557.15;;;;;;;17.87;100.00;101337.47;10432353;28;20037;-68
2023/09/13 03:55:00;;;;;;;561.50;531.53;;;;;;;17.85;100.00;101334.94;10451117;28;20037;-67
2023/09/13 04:00:01;;;;;;;639.72;602.67;;;;;;;17.89;100.00;101327.91;10432260;28;20360;-67
2023/09/13 04:05:02;;;;;;;649.50;612.42;;;;;;;17.91;100.00;101340.56;10449899;28;20048;-67
2023/09/13 04:10:02;;;;;;;657.15;620.40;;;;;;;17.97;100.00;101342.38;10416197;28;20029;-66
2023/09/13 04:15:04;;;;;;;670.08;631.65;;;;;;;18.04;100.00;101340.34;10432696;28;20489;-67
2023/09/13 04:20:05;;;;;;;665.78;627.13;;;;;;;18.03;100.00;101341.41;10449272;28;20123;-66
2023/09/13 04:25:06;;;;;;;680.47;640.65;;;;;;;18.09;100.00;101349.53;10432326;28;20460;-66
2023/09/13 04:30:07;;;;;;;679.65;640.15;;;;;;;18.12;100.00;101348.19;10432113;28;20033;-65
2023/09/13 04:35:08;;;;;;;693.45;652.22;;;;;;;18.34;100.00;101360.25;10450087;28;20064;-65
2023/09/13 04:40:09;;;;;;;690.20;649.00;;;;;;;18.26;100.00;101371.59;10367979;28;20502;-66
2023/09/13 04:45:09;;;;;;;699.42;657.55;;;;;;;17.91;100.00;101384.41;10469788;28;20567;-63
2023/09/13 04:50:10;;;;;;;709.55;667.25;;;;;;;17.71;100.00;101390.13;10457399;28;20462;-63
2023/09/13 04:55:10;;;;;;;693.58;652.42;;;;;;;17.49;100.00;101406.25;10457362;28;20400;-65
2023/09/13 05:00:11;;;;;;;751.85;705.15;;;;;;;17.25;100.00;101410.75;10457429;28;20098;-64
2023/09/13 05:05:12;;;;;;;657.22;620.25;;;;;;;16.99;100.00;101420.13;10439500;28;20118;-63
2023/09/13 05:10:12;;;;;;;677.33;636.90;;;;;;;16.91;100.00;101441.25;10457324;28;20244;-63
2023/09/13 05:15:12;;;;;;;688.83;648.10;;;;;;;16.83;100.00;101441.53;10457021;28;20116;-64
2023/09/13 05:20:13;;;;;;;687.58;647.13;;;;;;;16.54;100.00;101436.75;10457242;28;20383;-66
2023/09/13 05:25:13;;;;;;;667.72;629.47;;;;;;;16.30;100.00;101450.16;10456874;28;20037;-67
2023/09/13 05:30:14;;;;;;;646.42;610.85;;;;;;;16.13;100.00;101457.25;10456181;28;20116;-67
2023/09/13 05:35:16;;;;;;;857.08;797.50;;;;;;;15.91;100.00;101465.78;10455105;28;20044;-67
2023/09/13 05:40:16;;;;;;;695.30;655.10;;;;;;;15.65;100.00;101474.91;10438525;28;20144;-67
2023/09/13 05:45:17;;;;;;;639.17;604.35;;;;;;;15.53;100.00;101502.03;10472097;28;20036;-67
2023/09/13 05:50:17;;;;;;;696.75;656.75;;;;;;;15.62;100.00;101510.00;10455438;28;20061;-66
2023/09/13 05:55:18;;;;;;;741.10;694.85;;;;;;;15.36;100.00;101528.13;10454907;28;20076;-67
2023/09/13 06:00:19;;;;;;;636.03;600.95;;;;;;;15.50;100.00;101543.41;10455193;28;20048;-67
2023/09/13 06:05:19;;;;;;;633.40;598.92;;;;;;;15.70;100.00;101556.22;10470651;28;20471;-67
2023/09/13 06:10:19;;;;;;;658.25;621.45;;;;;;;16.25;100.00;101562.06;10455184;28;20146;-67
2023/09/13 06:15:20;;;;;;;656.03;619.45;;;;;;;16.17;100.00;101573.22;10453917;28;20033;-67
2023/09/13 06:20:21;;;;;;;1448.80;945.88;;;;;;;16.82;100.00;101570.34;10436851;28;20173;-66
2023/09/13 06:25:22;;;;;;;779.30;726.42;;;;;;;17.19;100.00;101588.50;10453043;28;20033;-67
2023/09/13 06:30:22;;;;;;;1145.90;936.83;;;;;;;18.05;100.00;101585.91;10454562;28;20392;-68
2023/09/13 06:35:22;;;;;;;803.97;744.53;;;;;;;18.30;100.00;101599.50;10454317;28;20469;-67
2023/09/13 06:40:23;;;;;;;701.90;658.47;;;;;;;18.93;100.00;101595.44;10436015;28;20052;-67
2023/09/13 06:45:23;;;;;;;579.42;549.03;;;;;;;18.98;100.00;101609.28;10468388;28;20469;-68
2023/09/13 06:50:24;;;;;;;682.92;643.30;;;;;;;19.25;100.00;101617.91;10452981;28;20048;-67
2023/09/13 06:55:24;;;;;;;590.28;558.00;;;;;;;19.29;100.00;101630.91;10453050;28;20044;-67
2023/09/13 07:00:25;;;;;;;572.53;542.80;;;;;;;19.60;100.00;101631.66;10451829;28;20414;-67
2023/09/13 07:05:25;;;;;;;715.10;662.90;;;;;;;19.77;100.00;101640.00;10452321;28;20052;-68
2023/09/13 07:10:27;;;;;;;552.33;524.60;;;;;;;18.20;100.00;101648.56;10452890;28;20372;-67
2023/09/13 07:15:27;;;;;;;516.97;491.45;;;;;;;17.77;100.00;101654.94;10451456;28;20090;-67
2023/09/13 07:20:28;;;;;;;576.80;546.55;;;;;;;17.85;100.00;101650.03;10450726;28;20076;-67
2023/09/13 07:25:28;;;;;;;641.75;605.63;;;;;;;17.65;100.00;101652.94;10450054;28;20151;-66
2023/09/13 07:30:29;;;;;;;631.58;594.40;;;;;;;17.89;100.00;101653.13;10451653;28;20460;-66
2023/09/13 07:35:29;;;;;;;795.05;738.38;;;;;;;18.01;100.00;101666.94;10451257;28;20025;-68
2023/09/13 07:40:29;;;;;;;524.75;498.88;;;;;;;18.40;100.00;101714.13;10452425;28;20333;-67
2023/09/13 07:45:32;;;;;;;571.63;542.45;;;;;;;18.65;100.00;101714.84;10451543;28;20029;-68
2023/09/13 07:50:40;;;;;;;538.25;511.63;;;;;;;19.72;100.00;101728.69;10432829;28;20056;-68
2023/09/13 07:55:40;;;;;;;490.48;467.30;;;;;;;19.39;100.00;101731.94;10449681;28;20108;-67
2023/09/13 08:00:43;;;;;;;508.02;483.67;;;;;;;19.41;100.00;101732.56;10433289;28;20044;-67
2023/09/13 08:05:45;;;;;;;481.73;458.77;;;;;;;19.38;100.00;101738.53;10450116;28;20028;-67
2023/09/13 08:10:46;;;;;;;525.92;499.75;;;;;;;21.32;100.00;101733.66;10465288;28;20041;-68
2023/09/13 08:15:48;;;;;;;471.65;448.52;;;;;;;23.02;100.00;101732.19;10448684;28;20028;-66
2023/09/13 08:20:48;;;;;;;606.83;571.55;;;;;;;22.61;100.00;101748.28;10448728;28;20103;-67
2023/09/13 08:25:49;;;;;;;434.50;415.80;;;;;;;22.45;100.00;101755.53;10431982;28;20098;-67
2023/09/13 08:30:49;;;;;;;346.85;332.35;;;;;;;22.24;100.00;101776.53;10451183;28;20033;-68
2023/09/13 08:35:50;;;;;;;316.95;304.10;;;;;;;22.35;100.00;101797.63;10465041;28;20112;-67
2023/09/13 08:40:50;;;;;;;430.42;410.52;;;;;;;23.80;100.00;101802.63;10449787;28;20085;-68
2023/09/13 08:45:51;;;;;;;256.27;245.93;;;;;;;22.95;100.00;101809.75;10449956;28;20065;-68
2023/09/13 08:50:51;;;;;;;235.88;226.60;;;;;;;23.04;100.00;101823.91;10464581;28;20510;-66
2023/09/13 08:55:52;;;;;;;243.27;233.70;;;;;;;22.84;100.00;101830.00;10431309;28;20484;-67
2023/09/13 09:00:52;;;;;;;325.27;311.33;;;;;;;22.78;98.71;101842.91;10465410;28;20037;-67
2023/09/13 09:05:53;;;;;;;201.63;193.57;;;;;;;22.13;100.00;101849.13;10448128;28;20056;-67
2023/09/13 09:10:56;;;;;;;194.77;186.98;;;;;;;21.85;100.00;101852.81;10431697;28;20400;-67
2023/09/13 09:15:56;;;;;;;251.23;241.32;;;;;;;22.32;97.68;101853.31;10448018;28;20033;-67
2023/09/13 09:20:57;;;;;;;221.43;212.73;;;;;;;23.16;100.00;101847.56;10431211;28;20547;-66
2023/09/13 09:25:59;;;;;;;216.93;208.35;;;;;;;22.94;93.26;101855.03;10465058;28;20053;-67
2023/09/13 09:31:01;;;;;;;202.63;194.57;;;;;;;24.03;100.00;101864.22;10452623;28;20039;-66
2023/09/13 09:36:01;;;;;;;186.20;178.95;;;;;;;23.29;95.19;101868.41;10457323;28;20079;-68
2023/09/13 09:41:02;;;;;;;182.23;175.10;;;;;;;22.90;91.55;101874.00;10438903;28;20037;-68
2023/09/13 09:46:03;;;;;;;204.27;196.18;;;;;;;23.21;100.00;101877.19;10471865;28;20397;-66
2023/09/13 09:51:03;;;;;;;298.35;283.27;;;;;;;22.99;81.22;101882.72;10437362;28;20053;-67
2023/09/13 09:56:04;;;;;;;195.18;187.40;;;;;;;22.78;80.69;101878.81;10456416;28;20045;-67
2023/09/13 10:01:04;;;;;;;134.52;129.30;;;;;;;22.48;82.68;101890.28;10454412;28;20033;-68
2023/09/13 10:06:12;;;;;;;210.70;202.38;;;;;;;22.10;82.54;101897.38;10437546;28;20108;-67
2023/09/13 10:11:21;;;;;;;147.85;142.10;;;;;;;22.71;91.29;101906.63;10470221;28;20462;-68
2023/09/13 10:16:26;;;;;;;207.48;198.77;;;;;;;23.14;75.74;101909.72;10455512;28;20461;-67
2023/09/13 10:21:28;;;;;;;311.92;298.02;;;;;;;24.29;68.68;101893.75;10452909;28;20029;-67
2023/09/13 10:26:32;;;;;;;294.95;280.58;;;;;;;25.33;60.70;101904.31;10477344;28;20037;-67
2023/09/13 10:31:32;;;;;;;212.85;203.65;;;;;;;25.54;58.32;101902.44;10458085;28;20028;-66
2023/09/13 10:36:35;;;;;;;162.13;155.80;;;;;;;24.16;71.08;101916.34;10459133;28;20087;-68
2023/09/13 10:41:41;;;;;;;144.57;138.93;;;;;;;23.89;78.70;101919.13;10441649;28;20410;-69
2023/09/13 10:46:42;;;;;;;178.30;171.40;;;;;;;23.13;72.31;101924.59;10439943;28;20028;-67
2023/09/13 10:51:42;;;;;;;166.07;159.55;;;;;;;22.72;83.91;101937.84;10456286;28;20413;-68
2023/09/13 10:56:43;;;;;;;302.75;289.55;;;;;;;21.68;83.52;101952.03;10438206;28;20066;-67
2023/09/13 11:01:46;;;;;;;220.10;211.32;;;;;;;20.23;96.57;101959.19;10452026;28;20472;-68
2023/09/13 11:06:48;;;;;;;535.50;493.63;;;;;;;19.65;100.00;101967.00;10451425;28;20037;-66
2023/09/13 11:11:51;;;;;;;388.70;371.40;;;;;;;18.74;100.00;101987.88;10452125;28;20061;-67
2023/09/13 11:16:52;;;;;;;407.83;389.65;;;;;;;18.86;100.00;101984.38;10435778;28;20032;-67
2023/09/13 11:22:00;;;;;;;367.05;350.02;;;;;;;19.43;97.90;101991.38;10467847;28;20344;-68
2023/09/13 11:27:11;;;;;;;335.02;321.13;;;;;;;19.70;98.13;101997.41;10450944;28;20174;-67
2023/09/13 11:32:16;;;;;;;322.73;309.45;;;;;;;19.99;100.00;102003.13;10452264;28;20385;-67
2023/09/13 11:37:17;;;;;;;433.77;413.25;;;;;;;20.17;93.17;102002.25;10435072;28;20051;-68
2023/09/13 11:42:24;;;;;;;266.85;255.98;;;;;;;20.60;98.29;102010.25;10468381;28;20035;-67
2023/09/13 11:47:24;;;;;;;339.95;325.48;;;;;;;20.59;89.00;102014.09;10450519;28;20372;-67
2023/09/13 11:52:25;;;;;;;219.65;210.98;;;;;;;21.21;93.48;102010.84;10451089;28;20049;-68
2023/09/13 11:57:47;;;;;;;193.50;185.07;;;;;;;21.99;94.55;102014.97;10451578;28;20466;-67
2023/09/13 12:02:48;;;;;;;170.10;163.38;;;;;;;21.67;89.15;102025.66;10466215;28;20131;-68
2023/09/13 12:07:48;;;;;;;179.73;172.43;;;;;;;21.41;83.57;102029.78;10466010;28;20385;-68
2023/09/13 12:12:49;;;;;;;176.38;169.13;;;;;;;20.83;84.89;102044.38;10449449;28;20060;-68
2023/09/13 12:17:49;;;;;;;143.25;137.18;;;;;;;21.02;87.26;102031.34;10449214;28;20041;-67
2023/09/13 12:22:51;;;;;;;118.72;113.72;;;;;;;21.07;83.75;102046.06;10448750;28;20056;-68
2023/09/13 12:27:51;;;;;;;95.65;91.75;;;;;;;21.11;78.48;102055.53;10450378;28;20033;-67
2023/09/13 12:32:52;;;;;;;128.38;123.18;;;;;;;21.02;68.91;102053.38;10449029;28;20543;-67
2023/09/13 12:37:59;;;;;;;81.40;77.68;;;;;;;21.48;82.22;102051.69;10432455;28;20076;-68
2023/09/13 12:42:59;;;;;;;86.35;82.43;;;;;;;21.51;79.08;102053.97;10465694;28;20073;-67
2023/09/13 12:48:02;;;;;;;89.45;85.80;;;;;;;21.66;74.38;102051.50;10448710;28;20517;-66
2023/09/13 12:53:03;;;;;;;86.32;82.65;;;;;;;22.17;79.45;102055.31;10433276;28;20431;-68
2023/09/13 12:58:04;;;;;;;89.82;86.25;;;;;;;24.49;65.46;102050.06;10449732;28;20029;-67
2023/09/13 13:03:04;;;;;;;370.45;350.67;;;;;;;25.17;57.32;102045.63;10449435;28;20522;-68
2023/09/13 13:08:06;;;;;;;232.50;223.15;;;;;;;25.86;60.45;102057.66;10457439;28;20099;-68
2023/09/13 13:13:06;;;;;;;370.63;355.38;;;;;;;25.66;57.97;102063.94;10455981;28;20033;-67
2023/09/13 13:18:10;;;;;;;354.48;339.33;;;;;;;24.30;57.56;102057.91;10457875;28;20029;-67
2023/09/13 13:23:10;;;;;;;345.23;331.02;;;;;;;23.51;54.04;102072.16;10439328;28;20112;-69
2023/09/13 13:28:11;;;;;;;326.30;312.27;;;;;;;23.26;57.71;102067.09;10456585;28;20037;-67
2023/09/13 13:33:11;;;;;;;317.42;304.65;;;;;;;22.71;59.12;102066.78;10457102;28;20028;-67
2023/09/13 13:38:13;;;;;;;312.27;299.67;;;;;;;23.06;64.88;102067.63;10456617;28;20122;-67
2023/09/13 13:43:13;;;;;;;305.70;293.33;;;;;;;23.00;64.41;102069.47;10456444;28;20033;-68
2023/09/13 13:48:14;;;;;;;314.88;301.70;;;;;;;23.71;67.67;102063.31;10455212;28;20033;-68
2023/09/13 13:53:14;;;;;;;316.15;303.05;;;;;;;23.49;61.01;102057.75;10454485;28;20080;-67
2023/09/13 13:58:15;;;;;;;308.23;295.67;;;;;;;24.10;66.82;102053.00;10471509;28;20064;-68
2023/09/13 14:03:15;;;;;;;385.52;369.40;;;;;;;25.15;62.14;102058.09;10455695;28;20123;-67
2023/09/13 14:08:23;;;;;;;411.48;393.77;;;;;;;25.87;62.96;102050.97;10455285;28;20650;-69
2023/09/13 14:13:25;;;;;;;418.58;400.70;;;;;;;25.25;68.61;102050.69;10437482;28;20511;-68
2023/09/13 14:18:26;;;;;;;441.67;422.00;;;;;;;24.42;59.01;102061.38;10453831;28;20038;-67
2023/09/13 14:23:26;;;;;;;428.23;409.67;;;;;;;24.77;56.50;102060.84;10453403;28;20037;-68
2023/09/13 14:28:27;;;;;;;476.42;454.25;;;;;;;24.92;51.05;102059.28;10470070;28;20041;-67
2023/09/13 14:33:31;;;;;;;430.08;410.70;;;;;;;24.62;57.31;102057.94;10436588;28;20036;-67
2023/09/13 14:38:31;;;;;;;446.25;426.65;;;;;;;25.24;59.94;102057.34;10453612;28;20041;-67
2023/09/13 14:43:32;;;;;;;470.67;449.17;;;;;;;25.06;58.47;102050.25;10453000;28;20169;-67
2023/09/13 14:48:32;;;;;;;475.02;453.20;;;;;;;25.01;56.42;102041.06;10453051;28;20053;-67
2023/09/13 14:53:32;;;;;;;476.27;454.10;;;;;;;24.67;64.87;102040.56;10468007;28;20409;-68
2023/09/13 14:58:33;;;;;;;548.03;520.05;;;;;;;23.40;53.22;102051.81;10435431;28;20140;-68
2023/09/13 15:03:34;;;;;;;399.98;383.13;;;;;;;22.57;55.90;102053.56;10453049;28;20033;-67
2023/09/13 15:08:35;;;;;;;382.48;366.02;;;;;;;22.56;61.93;102051.88;10452864;28;20123;-67
2023/09/13 15:13:35;;;;;;;374.60;359.08;;;;;;;22.44;55.76;102063.00;10452781;28;20094;-68
2023/09/13 15:18:35;;;;;;;353.27;338.75;;;;;;;21.57;55.81;102061.28;10435016;28;20029;-68
2023/09/13 15:23:36;;;;;;;330.38;316.90;;;;;;;21.75;60.54;102063.00;10452642;28;20081;-67
2023/09/13 15:28:36;;;;;;;330.25;316.58;;;;;;;21.76;57.87;102064.69;10450607;28;20051;-67
2023/09/13 15:33:37;;;;;;;359.52;344.42;;;;;;;21.73;57.39;102066.03;10452864;28;20036;-68
2023/09/13 15:38:38;;;;;;;335.25;321.63;;;;;;;21.54;59.89;102054.31;10452226;28;20438;-68
2023/09/13 15:43:39;;;;;;;319.60;306.05;;;;;;;21.40;62.38;102063.09;10451752;28;20033;-67
2023/09/13 15:48:40;;;;;;;278.58;267.45;;;;;;;21.19;64.58;102064.53;10451638;28;20051;-68
2023/09/13 15:53:41;;;;;;;245.93;234.88;;;;;;;20.76;63.15;102062.94;10450955;28;20052;-68
2023/09/13 15:58:42;;;;;;;280.25;268.83;;;;;;;20.41;66.75;102070.00;10449465;28;20044;-68
2023/09/13 16:03:42;;;;;;;255.85;245.38;;;;;;;20.20;66.77;102071.38;10449927;28;20043;-68
2023/09/13 16:08:43;;;;;;;228.75;219.60;;;;;;;20.16;68.26;102074.81;10450524;28;20037;-67
2023/09/13 16:13:43;;;;;;;201.88;193.70;;;;;;;19.95;68.79;102078.91;10450196;28;20536;-67
2023/09/13 16:18:43;;;;;;;218.38;209.52;;;;;;;19.74;70.03;102086.56;10450517;28;20036;-68
2023/09/13 16:23:44;;;;;;;176.77;169.52;;;;;;;19.46;70.36;102086.22;10450819;28;20033;-68
2023/09/13 16:28:44;;;;;;;161.57;154.90;;;;;;;19.31;71.54;102086.59;10465689;28;20044;-68
2023/09/13 16:33:46;;;;;;;202.60;194.32;;;;;;;19.19;73.02;102096.66;10450380;28;20464;-67
2023/09/13 16:38:46;;;;;;;178.60;171.30;;;;;;;19.05;73.38;102105.00;10449342;28;20114;-68
2023/09/13 16:43:48;;;;;;;122.18;116.38;;;;;;;18.96;74.93;102108.25;10474519;28;20091;-67
2023/09/13 16:48:48;;;;;;;93.20;88.07;;;;;;;18.80;76.61;102113.22;10458338;28;20037;-67
2023/09/13 16:53:49;;;;;;;117.25;111.47;;;;;;;18.61;78.92;102105.13;10440427;28;20117;-68
2023/09/13 16:58:49;;;;;;;99.53;94.53;;;;;;;18.54;79.24;102102.44;10458177;28;20112;-67
2023/09/13 17:03:50;;;;;;;98.30;94.28;;;;;;;18.33;81.75;102106.34;10472751;28;20051;-68
2023/09/13 17:08:51;;;;;;;117.20;112.43;;;;;;;18.19;86.30;102116.53;10458354;28;20094;-69
2023/09/13 17:13:52;;;;;;;166.02;159.13;;;;;;;18.13;87.55;102118.25;10459382;28;20067;-68
2023/09/13 17:18:53;;;;;;;292.08;279.60;;;;;;;17.97;90.81;102120.66;10457476;28;20390;-68
2023/09/13 17:23:53;;;;;;;414.52;395.85;;;;;;;17.91;91.48;102132.47;10474197;28;20158;-67
2023/09/13 17:28:54;;;;;;;475.77;452.27;;;;;;;17.83;90.43;102130.81;10459072;28;20033;-68
2023/09/13 17:33:54;;;;;;;511.58;486.92;;;;;;;17.71;91.54;102130.63;10457437;28;20052;-68
2023/09/13 17:38:55;;;;;;;503.60;479.15;;;;;;;17.66;92.43;102152.31;10457994;28;20385;-68
2023/09/13 17:43:55;;;;;;;494.80;471.48;;;;;;;17.75;92.02;102147.47;10456536;28;20068;-67
2023/09/13 17:48:59;;;;;;;480.35;458.00;;;;;;;17.74;93.00;102138.41;10456219;28;20311;-68
2023/09/13 17:54:00;;;;;;;451.52;430.38;;;;;;;17.77;94.73;102151.72;10456038;28;20056;-68
2023/09/13 17:59:01;;;;;;;344.13;329.35;;;;;;;17.52;99.37;102157.00;10456464;28;20493;-67
2023/09/13 18:04:01;;;;;;;257.10;246.32;;;;;;;17.38;99.92;102160.78;10455659;28;20071;-67
2023/09/13 18:09:02;;;;;;;160.20;153.38;;;;;;;17.36;99.40;102150.06;10455916;28;20116;-68
2023/09/13 18:14:02;;;;;;;120.20;114.70;;;;;;;17.40;97.96;102150.47;10471040;28;20036;-67
2023/09/13 18:19:03;;;;;;;236.07;226.23;;;;;;;17.34;100.00;102157.63;10454922;28;20120;-67
2023/09/13 18:24:05;;;;;;;106.65;101.53;;;;;;;17.29;99.47;102165.63;10454401;28;20037;-67
2023/09/13 18:29:06;;;;;;;112.22;107.22;;;;;;;17.13;100.00;102166.94;10454401;28;20029;-67
2023/09/13 18:34:06;;;;;;;98.35;94.18;;;;;;;16.86;100.00;102168.78;10455183;28;20044;-67
2023/09/13 18:39:13;;;;;;;136.00;130.55;;;;;;;16.73;100.00;102168.72;10468977;28;20097;-68
2023/09/13 18:44:14;;;;;;;166.63;159.30;;;;;;;16.54;100.00;102175.00;10435756;28;20520;-69
2023/09/13 18:49:14;;;;;;;207.98;198.55;;;;;;;16.55;100.00;102182.16;10452558;28;20059;-67
2023/09/13 18:54:15;;;;;;;205.02;197.00;;;;;;;16.41;100.00;102186.72;10468841;28;20449;-67
2023/09/13 18:59:15;;;;;;;294.42;282.58;;;;;;;16.20;100.00;102187.69;10453268;28;20037;-68
2023/09/13 19:04:16;;;;;;;360.05;344.65;;;;;;;16.07;100.00;102196.66;10452595;28;20095;-67
2023/09/13 19:09:16;;;;;;;361.10;345.20;;;;;;;15.91;100.00;102192.38;10451677;28;20036;-67
2023/09/13 19:14:16;;;;;;;365.33;349.65;;;;;;;15.75;100.00;102200.91;10435071;28;20055;-68
2023/09/13 19:19:17;;;;;;;397.98;380.00;;;;;;;15.64;100.00;102202.28;10451842;28;20041;-67
2023/09/13 19:24:17;;;;;;;379.92;363.05;;;;;;;15.48;100.00;102203.41;10450815;28;20413;-67
2023/09/13 19:29:18;;;;;;;410.25;392.33;;;;;;;15.39;100.00;102210.06;10433932;28;20029;-69
2023/09/13 19:34:18;;;;;;;455.35;434.42;;;;;;;15.29;100.00;102231.38;10434162;28;20087;-68
2023/09/13 19:39:18;;;;;;;449.67;429.10;;;;;;;15.20;100.00;102236.13;10466979;28;20040;-67
2023/09/13 19:44:19;;;;;;;482.90;459.83;;;;;;;15.09;100.00;102236.63;10451757;28;20028;-68
2023/09/13 19:49:21;;;;;;;500.45;476.30;;;;;;;15.09;100.00;102253.88;10451480;28;20284;-67
2023/09/13 19:54:22;;;;;;;495.05;470.80;;;;;;;15.01;100.00;102245.81;10451361;28;20178;-68
2023/09/13 19:59:22;;;;;;;506.05;481.77;;;;;;;14.98;100.00;102250.81;10450896;28;20124;-67
2023/09/13 20:04:23;;;;;;;479.95;457.45;;;;;;;14.95;100.00;102251.19;10466681;28;20495;-68
2023/09/13 20:09:23;;;;;;;497.20;473.48;;;;;;;14.98;100.00;102245.34;10451247;28;20037;-68
2023/09/13 20:14:23;;;;;;;506.95;481.55;;;;;;;14.99;100.00;102242.41;10465492;28;20033;-67
2023/09/13 20:19:24;;;;;;;532.97;506.58;;;;;;;15.00;100.00;102246.03;10465370;28;20494;-67
2023/09/13 20:24:24;;;;;;;550.10;522.58;;;;;;;14.94;100.00;102252.25;10450960;28;20047;-68
2023/09/13 20:29:25;;;;;;;557.33;528.67;;;;;;;14.83;100.00;102256.31;10448925;28;20097;-67
2023/09/13 20:34:26;;;;;;;538.20;511.02;;;;;;;14.72;100.00;102257.66;10450573;28;20058;-68
2023/09/13 20:39:26;;;;;;;544.97;516.75;;;;;;;14.62;100.00;102260.69;10451245;28;20048;-66
2023/09/13 20:44:27;;;;;;;554.13;525.63;;;;;;;14.49;100.00;102257.78;10466034;28;20105;-67
2023/09/13 20:49:27;;;;;;;568.53;539.55;;;;;;;14.40;100.00;102258.91;10448791;28;20124;-67
2023/09/13 20:54:28;;;;;;;577.63;547.63;;;;;;;14.37;100.00;102260.13;10431573;28;20111;-67
2023/09/13 20:59:28;;;;;;;585.97;555.42;;;;;;;14.33;100.00;102260.72;10450370;28;20475;-66
2023/09/13 21:04:31;;;;;;;592.58;561.13;;;;;;;14.31;100.00;102260.88;10432195;28;20380;-68
2023/09/13 21:09:32;;;;;;;637.60;602.80;;;;;;;14.27;100.00;102254.13;10431965;28;20081;-67
2023/09/13 21:14:33;;;;;;;640.83;604.85;;;;;;;14.21;100.00;102268.50;10448840;28;20067;-66
2023/09/13 21:19:33;;;;;;;632.83;597.72;;;;;;;14.10;100.00;102271.69;10449113;28;20033;-67
2023/09/13 21:24:34;;;;;;;619.45;585.88;;;;;;;14.02;100.00;102271.78;10465253;28;20345;-66
2023/09/13 21:29:37;;;;;;;667.20;629.20;;;;;;;14.01;100.00;102264.63;10456186;28;20033;-66
2023/09/13 21:34:37;;;;;;;642.97;606.95;;;;;;;14.03;100.00;102274.31;10457012;28;20616;-66
2023/09/13 21:39:38;;;;;;;653.17;616.10;;;;;;;13.98;100.00;102268.59;10455860;28;20089;-65
2023/09/13 21:44:38;;;;;;;662.55;624.45;;;;;;;14.01;100.00;102276.38;10456249;28;20080;-66
2023/09/13 21:49:38;;;;;;;665.78;626.72;;;;;;;13.95;100.00;102283.41;10456089;28;20036;-66
2023/09/13 21:54:46;;;;;;;666.42;628.60;;;;;;;13.85;100.00;102280.13;10455954;28;20072;-66